Boca do Monte, Brazil
Current Conditions -  °F | °C
As of 6:00 AM on Thursday 29 Jan 2015 (Local Time) from SBSM Reporting Station
Broken Clouds Broken Clouds  
Wind Chill: 72°   Ceiling: 10000
Heat Index: 72°   Visibility: 6mi
Dew Point: 70°   Wind: 5mph
Humidity: 94%   Direction: 250°WSW
Pressure: 29.74"   Gusts: NA
Location:  29.64°S, 53.93°W
Report Text: SBSM 290800Z 25004KT 9999 FEW006 SCT025 BKN100 22/21 Q1007
Loading
Personal Weather Stations






























Interactive Weather Map New forecast layout! Learn more

10-Day Weather Forecast

Advertisements
Track Severe Weather on mobile